Time;durP1;ratioP1;P1;durP2;ratioP2;P2;SDS_P1;SDS_P2;PMS_P1;PMS_P2;Temp;Humidity;BMP_temperature;BMP_pressure;BME280_temperature;BME280_humidity;BME280_pressure;Samples;Min_cycle;Max_cycle;Signal;HPM_P1;HPM_P2
2023/08/20 00:00:59;;;;;;;7.15;1.50;;;;;;;;;;5002166;28;25126;-77
2023/08/20 00:03:25;;;;;;;7.63;2.30;;;;;;;;;;5012842;28;25080;-77
2023/08/20 00:05:52;;;;;;;12.63;2.58;;;;;;;;;;5010119;28;25077;-77
2023/08/20 00:08:18;;;;;;;8.57;2.15;;;;;;;;;;5020533;28;25113;-76
2023/08/20 00:10:44;;;;;;;9.27;2.00;;;;;;;;;;5022042;28;25109;-77
2023/08/20 00:13:11;;;;;;;6.25;1.27;;;;;;;;;;5006883;28;25085;-76
2023/08/20 00:15:37;;;;;;;10.93;1.77;;;;;;;;;;5013482;28;25146;-77
2023/08/20 00:18:03;;;;;;;8.85;1.77;;;;;;;;;;5010375;28;25100;-77
2023/08/20 00:20:29;;;;;;;8.05;1.65;;;;;;;;;;5012872;28;25064;-77
2023/08/20 00:22:55;;;;;;;8.48;2.17;;;;;;;;;;5014547;28;25078;-77
2023/08/20 00:25:22;;;;;;;9.23;2.05;;;;;;;;;;5022242;28;25056;-77
2023/08/20 00:27:47;;;;;;;8.45;2.17;;;;;;;;;;5020770;28;25076;-77
2023/08/20 00:30:14;;;;;;;7.00;2.40;;;;;;;;;;5016224;28;25090;-77
2023/08/20 00:32:40;;;;;;;11.45;2.03;;;;;;;;;;5013774;28;25069;-76
2023/08/20 00:35:09;;;;;;;7.32;1.67;;;;;;;;;;5021786;28;25055;-75
2023/08/20 00:37:35;;;;;;;10.18;2.45;;;;;;;;;;5011135;28;25146;-78
2023/08/20 00:40:04;;;;;;;6.72;1.52;;;;;;;;;;5015639;28;25073;-75
2023/08/20 00:42:30;;;;;;;9.82;2.38;;;;;;;;;;5007415;28;25057;-77
2023/08/20 00:44:56;;;;;;;12.43;2.42;;;;;;;;;;5001011;28;25062;-77
2023/08/20 00:47:23;;;;;;;8.75;1.80;;;;;;;;;;5021142;28;25073;-78
2023/08/20 00:49:49;;;;;;;13.07;2.03;;;;;;;;;;5018797;28;25135;-77
2023/08/20 00:52:17;;;;;;;8.80;2.40;;;;;;;;;;5012711;28;25133;-76
2023/08/20 00:54:46;;;;;;;6.47;2.05;;;;;;;;;;5017143;28;25081;-76
2023/08/20 00:57:14;;;;;;;10.80;2.20;;;;;;;;;;5020767;28;25083;-76
2023/08/20 00:59:40;;;;;;;4.30;1.33;;;;;;;;;;5019508;28;25139;-78
2023/08/20 01:02:06;;;;;;;11.30;2.17;;;;;;;;;;5005550;28;25055;-76
2023/08/20 01:04:32;;;;;;;7.40;1.70;;;;;;;;;;5021038;28;25060;-76
2023/08/20 01:07:16;;;;;;;6.40;1.88;;;;;;;;;;5011970;28;25090;-76
2023/08/20 01:09:51;;;;;;;7.65;2.28;;;;;;;;;;5008970;28;25065;-76
2023/08/20 01:12:18;;;;;;;9.52;1.63;;;;;;;;;;5029420;28;25096;-75
2023/08/20 01:14:44;;;;;;;11.57;2.17;;;;;;;;;;5034291;28;25058;-74
2023/08/20 01:17:09;;;;;;;6.22;1.67;;;;;;;;;;5029874;28;25120;-76
2023/08/20 01:19:36;;;;;;;8.07;2.03;;;;;;;;;;5042549;28;25066;-78
2023/08/20 01:22:01;;;;;;;10.25;1.92;;;;;;;;;;5035125;28;25070;-76
2023/08/20 01:24:30;;;;;;;6.47;2.05;;;;;;;;;;5013329;28;25079;-77
2023/08/20 01:26:59;;;;;;;7.78;1.92;;;;;;;;;;5007850;28;25079;-74
2023/08/20 01:29:26;;;;;;;9.32;2.15;;;;;;;;;;5010857;28;25064;-77
2023/08/20 01:31:54;;;;;;;7.85;1.67;;;;;;;;;;5014695;28;25081;-77
2023/08/20 01:34:20;;;;;;;8.85;1.77;;;;;;;;;;5009730;28;25126;-79
2023/08/20 01:36:46;;;;;;;8.30;1.75;;;;;;;;;;5011554;28;25127;-78
2023/08/20 01:39:12;;;;;;;8.27;2.40;;;;;;;;;;5018642;28;25193;-78
2023/08/20 01:41:38;;;;;;;5.43;1.58;;;;;;;;;;5018712;28;25100;-76
2023/08/20 01:44:04;;;;;;;6.55;2.17;;;;;;;;;;5017739;28;25050;-78
2023/08/20 01:46:30;;;;;;;7.10;1.63;;;;;;;;;;5018630;28;25077;-77
2023/08/20 01:48:56;;;;;;;4.13;1.20;;;;;;;;;;5025379;28;25061;-78
2023/08/20 01:51:22;;;;;;;4.63;1.40;;;;;;;;;;5021822;28;25061;-78
2023/08/20 01:53:48;;;;;;;8.48;1.75;;;;;;;;;;5018243;28;25130;-76
2023/08/20 01:56:14;;;;;;;8.35;2.00;;;;;;;;;;5031048;28;25084;-79
2023/08/20 01:58:40;;;;;;;7.75;2.03;;;;;;;;;;5029411;28;25073;-78
2023/08/20 02:01:06;;;;;;;8.05;2.13;;;;;;;;;;5027752;28;25106;-77
2023/08/20 02:03:32;;;;;;;7.47;1.50;;;;;;;;;;5019303;28;25096;-76
2023/08/20 02:05:58;;;;;;;6.47;1.80;;;;;;;;;;5019243;28;25156;-78
2023/08/20 02:08:24;;;;;;;7.13;1.63;;;;;;;;;;5014564;28;25131;-77
2023/08/20 02:10:50;;;;;;;4.70;1.58;;;;;;;;;;5018242;28;25046;-77
2023/08/20 02:13:16;;;;;;;3.63;1.10;;;;;;;;;;5015660;28;25089;-78
2023/08/20 02:15:42;;;;;;;7.28;2.30;;;;;;;;;;5019273;28;25043;-77
2023/08/20 02:18:08;;;;;;;7.63;1.90;;;;;;;;;;5010326;28;25110;-77
2023/08/20 02:20:35;;;;;;;6.57;1.70;;;;;;;;;;5010467;28;25156;-77
2023/08/20 02:23:01;;;;;;;7.18;1.85;;;;;;;;;;5007969;28;25068;-76
2023/08/20 02:25:27;;;;;;;9.10;2.05;;;;;;;;;;5005126;28;25116;-77
2023/08/20 02:27:53;;;;;;;6.63;1.63;;;;;;;;;;5010805;28;25078;-77
2023/08/20 02:30:19;;;;;;;11.68;2.00;;;;;;;;;;5015207;28;25077;-78
2023/08/20 02:32:45;;;;;;;6.13;2.13;;;;;;;;;;5004690;28;25061;-77
2023/08/20 02:35:13;;;;;;;6.57;2.08;;;;;;;;;;5010133;28;25046;-77
2023/08/20 02:37:41;;;;;;;6.15;2.15;;;;;;;;;;5015603;28;25057;-78
2023/08/20 02:40:08;;;;;;;5.40;1.58;;;;;;;;;;5012804;28;25057;-77
2023/08/20 02:42:34;;;;;;;9.20;2.08;;;;;;;;;;5024991;28;25197;-76
2023/08/20 02:45:00;;;;;;;5.85;1.50;;;;;;;;;;5014660;28;25081;-77
2023/08/20 02:47:26;;;;;;;10.85;2.17;;;;;;;;;;5018740;28;25073;-77
2023/08/20 02:49:52;;;;;;;6.38;2.13;;;;;;;;;;5021528;28;25057;-76
2023/08/20 02:52:18;;;;;;;7.43;2.03;;;;;;;;;;5016543;28;25062;-77
2023/08/20 02:54:44;;;;;;;9.25;2.40;;;;;;;;;;5025355;28;25089;-77
2023/08/20 02:57:10;;;;;;;6.65;2.03;;;;;;;;;;5018025;28;25085;-77
2023/08/20 02:59:36;;;;;;;10.57;3.05;;;;;;;;;;5030710;28;25060;-75
2023/08/20 03:02:03;;;;;;;6.25;1.75;;;;;;;;;;5018760;28;25070;-77
2023/08/20 03:04:29;;;;;;;7.38;1.90;;;;;;;;;;5015880;28;25069;-78
2023/08/20 03:06:55;;;;;;;7.95;2.08;;;;;;;;;;5032767;28;25068;-77
2023/08/20 03:09:21;;;;;;;4.57;1.70;;;;;;;;;;5020238;28;25065;-77
2023/08/20 03:11:47;;;;;;;7.63;2.00;;;;;;;;;;5014124;28;25161;-77
2023/08/20 03:14:13;;;;;;;8.45;2.00;;;;;;;;;;5015096;28;25067;-77
2023/08/20 03:16:39;;;;;;;8.63;1.98;;;;;;;;;;5030717;28;25066;-78
2023/08/20 03:19:05;;;;;;;9.55;1.90;;;;;;;;;;5030464;28;25216;-76
2023/08/20 03:21:31;;;;;;;7.80;2.38;;;;;;;;;;5029625;28;25066;-78
2023/08/20 03:23:57;;;;;;;9.20;1.90;;;;;;;;;;5028953;28;25150;-76
2023/08/20 03:26:23;;;;;;;13.38;2.88;;;;;;;;;;5032740;28;25072;-77
2023/08/20 03:28:49;;;;;;;10.65;2.20;;;;;;;;;;5024072;28;25080;-78
2023/08/20 03:31:15;;;;;;;8.93;2.08;;;;;;;;;;5030753;28;25101;-77
2023/08/20 03:33:41;;;;;;;8.57;2.58;;;;;;;;;;5022130;28;25084;-78
2023/08/20 03:36:07;;;;;;;7.53;2.42;;;;;;;;;;5028630;28;25119;-75
2023/08/20 03:38:32;;;;;;;9.20;2.20;;;;;;;;;;5017925;28;25086;-78
2023/08/20 03:40:58;;;;;;;13.35;2.47;;;;;;;;;;5021779;28;25057;-76
2023/08/20 03:43:24;;;;;;;8.93;2.50;;;;;;;;;;5012681;28;25072;-75
2023/08/20 03:45:51;;;;;;;10.75;2.40;;;;;;;;;;5020643;28;25065;-78
2023/08/20 03:48:17;;;;;;;11.65;2.50;;;;;;;;;;5022509;28;25072;-77
2023/08/20 03:50:44;;;;;;;8.40;2.10;;;;;;;;;;5021450;28;25130;-78
2023/08/20 03:53:10;;;;;;;7.78;2.00;;;;;;;;;;5016940;28;25070;-76
2023/08/20 03:55:36;;;;;;;7.05;1.83;;;;;;;;;;5014031;28;25072;-77
2023/08/20 03:58:02;;;;;;;10.45;2.05;;;;;;;;;;5009349;28;25087;-77
2023/08/20 04:00:28;;;;;;;8.55;2.38;;;;;;;;;;5030607;28;25051;-77
2023/08/20 04:02:54;;;;;;;7.15;2.05;;;;;;;;;;5023368;28;25075;-76
2023/08/20 04:05:20;;;;;;;6.65;2.63;;;;;;;;;;5017348;28;25072;-78
2023/08/20 04:07:46;;;;;;;10.02;2.35;;;;;;;;;;5020558;28;25085;-77
2023/08/20 04:10:12;;;;;;;8.90;1.90;;;;;;;;;;5024020;28;25086;-78
2023/08/20 04:12:39;;;;;;;11.82;2.35;;;;;;;;;;5024791;28;25161;-78
2023/08/20 04:15:06;;;;;;;6.18;2.50;;;;;;;;;;5018931;28;25119;-75
2023/08/20 04:17:32;;;;;;;8.43;2.40;;;;;;;;;;5018662;28;25074;-77
2023/08/20 04:19:58;;;;;;;11.68;3.05;;;;;;;;;;5027837;28;25074;-78
2023/08/20 04:22:25;;;;;;;9.65;2.53;;;;;;;;;;5028950;28;25065;-78
2023/08/20 04:24:50;;;;;;;9.10;2.42;;;;;;;;;;5036702;28;25078;-78
2023/08/20 04:27:16;;;;;;;12.95;2.20;;;;;;;;;;5026361;28;25071;-76
2023/08/20 04:29:42;;;;;;;12.25;2.63;;;;;;;;;;5033402;28;25094;-78
2023/08/20 04:32:09;;;;;;;15.45;3.40;;;;;;;;;;5010338;28;25061;-76
2023/08/20 04:34:35;;;;;;;11.88;2.63;;;;;;;;;;5012296;28;25049;-78
2023/08/20 04:37:01;;;;;;;8.68;2.72;;;;;;;;;;5022200;28;25109;-76
2023/08/20 04:39:27;;;;;;;6.18;2.50;;;;;;;;;;5015045;28;25060;-77
2023/08/20 04:41:53;;;;;;;6.40;2.33;;;;;;;;;;5014074;28;25068;-77
2023/08/20 04:44:19;;;;;;;11.63;3.05;;;;;;;;;;5022812;28;25051;-78
2023/08/20 04:46:45;;;;;;;8.35;2.20;;;;;;;;;;5019472;28;25141;-80
2023/08/20 04:49:11;;;;;;;11.98;2.10;;;;;;;;;;5017542;28;25097;-77
2023/08/20 04:51:37;;;;;;;14.10;3.28;;;;;;;;;;5030166;28;25061;-79
2023/08/20 04:54:03;;;;;;;4.93;2.28;;;;;;;;;;5015196;28;25073;-77
2023/08/20 04:56:29;;;;;;;8.30;2.60;;;;;;;;;;5016152;28;25061;-78
2023/08/20 04:58:55;;;;;;;8.32;2.63;;;;;;;;;;5021318;28;25108;-78
2023/08/20 05:01:21;;;;;;;9.30;2.65;;;;;;;;;;5027589;28;25083;-78
2023/08/20 05:03:47;;;;;;;12.32;2.90;;;;;;;;;;5017982;28;25061;-77
2023/08/20 05:06:13;;;;;;;11.60;2.47;;;;;;;;;;5020564;28;25151;-77
2023/08/20 05:08:39;;;;;;;11.15;3.88;;;;;;;;;;5025569;28;25066;-77
2023/08/20 05:11:05;;;;;;;7.90;2.60;;;;;;;;;;5025727;28;25156;-75
2023/08/20 05:13:31;;;;;;;13.75;3.50;;;;;;;;;;5019285;28;25072;-78
2023/08/20 05:15:57;;;;;;;7.07;2.92;;;;;;;;;;5021422;28;25080;-78
2023/08/20 05:18:23;;;;;;;9.55;2.90;;;;;;;;;;5030505;28;25076;-78
2023/08/20 05:20:49;;;;;;;7.82;2.72;;;;;;;;;;5019351;28;25109;-79
2023/08/20 05:23:15;;;;;;;12.27;3.15;;;;;;;;;;5032669;28;25071;-80
2023/08/20 05:25:41;;;;;;;12.13;2.83;;;;;;;;;;5025670;28;25092;-78
2023/08/20 05:28:07;;;;;;;11.38;2.35;;;;;;;;;;5014371;28;25073;-77
2023/08/20 05:30:34;;;;;;;11.07;2.80;;;;;;;;;;5019947;28;25076;-78
2023/08/20 05:33:00;;;;;;;11.70;3.40;;;;;;;;;;5020669;28;25098;-78
2023/08/20 05:35:32;;;;;;;9.57;2.65;;;;;;;;;;5028717;28;25083;-68
2023/08/20 05:37:58;;;;;;;11.07;3.35;;;;;;;;;;5018375;28;25147;-66
2023/08/20 05:40:24;;;;;;;12.43;3.78;;;;;;;;;;5020833;28;25103;-67
2023/08/20 05:42:50;;;;;;;12.93;3.70;;;;;;;;;;5014988;28;25066;-68
2023/08/20 05:45:16;;;;;;;17.40;4.15;;;;;;;;;;5018059;28;25059;-67
2023/08/20 05:47:42;;;;;;;12.15;3.60;;;;;;;;;;5015748;23;25065;-74
2023/08/20 05:50:08;;;;;;;11.52;3.15;;;;;;;;;;5006671;28;25071;-74
2023/08/20 05:52:34;;;;;;;16.35;3.78;;;;;;;;;;5012704;28;25059;-74
2023/08/20 05:55:00;;;;;;;12.88;3.95;;;;;;;;;;5001781;28;25061;-74
2023/08/20 05:57:26;;;;;;;9.30;2.70;;;;;;;;;;4998572;28;25056;-73
2023/08/20 05:59:52;;;;;;;8.02;2.88;;;;;;;;;;4996394;28;25062;-75
2023/08/20 06:02:18;;;;;;;10.43;2.88;;;;;;;;;;5001616;28;25109;-73
2023/08/20 06:04:44;;;;;;;10.07;3.25;;;;;;;;;;5000858;28;25109;-74
2023/08/20 06:07:10;;;;;;;12.45;3.22;;;;;;;;;;5000737;28;25081;-73
2023/08/20 06:09:36;;;;;;;8.15;3.28;;;;;;;;;;4984398;28;25071;-73
2023/08/20 06:12:02;;;;;;;11.52;2.60;;;;;;;;;;4982174;28;25082;-73
2023/08/20 06:14:28;;;;;;;12.82;2.67;;;;;;;;;;4977667;28;25051;-73
2023/08/20 06:16:54;;;;;;;9.00;2.58;;;;;;;;;;4984475;28;25141;-74
2023/08/20 06:19:20;;;;;;;8.45;2.47;;;;;;;;;;4989063;28;25078;-73
2023/08/20 06:21:46;;;;;;;11.02;2.65;;;;;;;;;;4988181;28;25103;-74
2023/08/20 06:24:12;;;;;;;9.57;1.90;;;;;;;;;;4981010;28;25110;-74
2023/08/20 06:26:38;;;;;;;11.32;2.92;;;;;;;;;;4979529;28;25062;-73
2023/08/20 06:29:04;;;;;;;5.65;2.30;;;;;;;;;;4983044;28;25132;-73
2023/08/20 06:31:30;;;;;;;9.57;2.60;;;;;;;;;;4984467;28;25075;-74
2023/08/20 06:33:56;;;;;;;10.98;2.65;;;;;;;;;;4979154;28;25094;-74
2023/08/20 06:36:22;;;;;;;15.82;2.42;;;;;;;;;;4983603;28;25109;-75
2023/08/20 06:38:48;;;;;;;7.20;2.30;;;;;;;;;;4982216;28;25056;-74
2023/08/20 06:41:14;;;;;;;14.25;2.88;;;;;;;;;;4984178;28;25070;-74
2023/08/20 06:43:39;;;;;;;11.60;3.03;;;;;;;;;;4976924;28;25120;-73
2023/08/20 06:46:06;;;;;;;14.93;2.60;;;;;;;;;;4973268;28;25110;-74
2023/08/20 06:48:32;;;;;;;11.20;2.75;;;;;;;;;;4973927;28;25074;-73
2023/08/20 06:50:58;;;;;;;11.27;2.10;;;;;;;;;;4976374;28;25050;-73
2023/08/20 06:53:24;;;;;;;8.18;2.60;;;;;;;;;;4960072;28;25079;-72
2023/08/20 06:55:50;;;;;;;12.25;2.28;;;;;;;;;;4975612;28;25107;-73
2023/08/20 06:58:16;;;;;;;15.38;2.80;;;;;;;;;;4969499;28;25055;-73
2023/08/20 07:00:42;;;;;;;6.90;2.70;;;;;;;;;;4976928;28;25143;-72
2023/08/20 07:03:08;;;;;;;14.93;2.42;;;;;;;;;;4962391;28;25075;-73
2023/08/20 07:05:34;;;;;;;10.93;2.30;;;;;;;;;;4959082;28;25097;-75
2023/08/20 07:08:00;;;;;;;6.32;2.20;;;;;;;;;;4963536;28;25064;-72
2023/08/20 07:10:26;;;;;;;5.85;1.80;;;;;;;;;;4986789;28;25069;-73
2023/08/20 07:12:52;;;;;;;14.90;3.03;;;;;;;;;;4973773;28;25076;-73
2023/08/20 07:15:18;;;;;;;7.90;1.90;;;;;;;;;;4983971;28;25064;-74
2023/08/20 07:17:44;;;;;;;14.93;3.13;;;;;;;;;;4959499;28;25112;-73
2023/08/20 07:20:10;;;;;;;6.35;2.00;;;;;;;;;;4968371;28;25064;-73
2023/08/20 07:22:36;;;;;;;7.15;2.95;;;;;;;;;;4973181;28;25056;-73
2023/08/20 07:25:02;;;;;;;8.45;1.85;;;;;;;;;;4961317;28;25072;-74
2023/08/20 07:27:28;;;;;;;6.40;2.00;;;;;;;;;;4964635;28;25076;-74
2023/08/20 07:29:54;;;;;;;10.63;2.35;;;;;;;;;;4959311;28;25092;-73
2023/08/20 07:32:20;;;;;;;8.48;1.83;;;;;;;;;;4959875;28;25166;-72
2023/08/20 07:34:46;;;;;;;11.55;2.65;;;;;;;;;;4967243;28;25053;-73
2023/08/20 07:37:12;;;;;;;8.98;2.33;;;;;;;;;;4953293;28;25076;-74
2023/08/20 07:39:38;;;;;;;9.57;2.08;;;;;;;;;;4963000;28;24779;-73
2023/08/20 07:42:04;;;;;;;9.40;2.65;;;;;;;;;;4962628;28;25080;-73
2023/08/20 07:44:30;;;;;;;11.88;2.28;;;;;;;;;;4964235;28;25098;-73
2023/08/20 07:46:56;;;;;;;10.75;2.42;;;;;;;;;;4968061;28;25065;-72
2023/08/20 07:49:22;;;;;;;14.98;3.05;;;;;;;;;;4961799;28;25082;-73
2023/08/20 07:51:52;;;;;;;8.50;2.80;;;;;;;;;;4966975;28;25061;-74
2023/08/20 07:54:18;;;;;;;7.65;2.08;;;;;;;;;;4983227;28;25098;-73
2023/08/20 07:56:44;;;;;;;6.65;1.52;;;;;;;;;;4965173;28;25072;-75
2023/08/20 07:59:10;;;;;;;5.22;2.00;;;;;;;;;;4961975;28;25067;-73
2023/08/20 08:01:36;;;;;;;12.75;2.53;;;;;;;;;;4960061;28;25064;-73
2023/08/20 08:04:02;;;;;;;6.90;2.60;;;;;;;;;;4962929;28;25090;-73
2023/08/20 08:06:28;;;;;;;7.47;2.40;;;;;;;;;;4960350;28;25099;-74
2023/08/20 08:08:54;;;;;;;11.00;2.20;;;;;;;;;;4957157;28;25383;-74
2023/08/20 08:11:20;;;;;;;9.27;2.40;;;;;;;;;;4965670;28;25151;-74
2023/08/20 08:13:46;;;;;;;8.65;2.58;;;;;;;;;;4970606;28;25075;-73
2023/08/20 08:16:12;;;;;;;9.52;2.53;;;;;;;;;;4981131;28;25062;-74
2023/08/20 08:18:38;;;;;;;7.75;2.05;;;;;;;;;;4974527;28;25163;-73
2023/08/20 08:21:04;;;;;;;8.77;2.08;;;;;;;;;;4969560;28;25043;-74
2023/08/20 08:23:30;;;;;;;9.68;2.58;;;;;;;;;;4966223;28;25133;-74
2023/08/20 08:25:57;;;;;;;7.45;2.35;;;;;;;;;;4971691;28;25095;-73
2023/08/20 08:28:23;;;;;;;7.68;2.13;;;;;;;;;;4973197;28;25066;-73
2023/08/20 08:30:49;;;;;;;9.18;2.33;;;;;;;;;;4972131;28;25144;-74
2023/08/20 08:33:15;;;;;;;6.95;2.25;;;;;;;;;;4950854;28;25129;-74
2023/08/20 08:35:40;;;;;;;11.43;2.25;;;;;;;;;;4962394;28;25057;-74
2023/08/20 08:38:06;;;;;;;6.05;2.53;;;;;;;;;;4950983;28;25070;-74
2023/08/20 08:40:33;;;;;;;7.00;2.10;;;;;;;;;;4969897;28;25064;-74
2023/08/20 08:43:00;;;;;;;8.32;2.28;;;;;;;;;;4958512;28;25083;-73
2023/08/20 08:45:27;;;;;;;7.85;2.25;;;;;;;;;;4978444;28;25073;-74
2023/08/20 08:47:54;;;;;;;6.93;1.60;;;;;;;;;;4963793;28;25110;-74
2023/08/20 08:50:21;;;;;;;5.13;1.42;;;;;;;;;;4966266;28;25061;-73
2023/08/20 08:52:48;;;;;;;8.60;2.03;;;;;;;;;;4961789;28;25063;-73
2023/08/20 08:55:14;;;;;;;5.10;1.60;;;;;;;;;;4962931;28;25152;-73
2023/08/20 08:57:40;;;;;;;5.60;1.70;;;;;;;;;;4958029;28;25077;-72
2023/08/20 09:00:07;;;;;;;11.38;2.85;;;;;;;;;;4959137;28;26185;-74
2023/08/20 09:02:33;;;;;;;5.05;1.52;;;;;;;;;;4963161;28;25059;-73
2023/08/20 09:04:59;;;;;;;5.70;1.63;;;;;;;;;;4954681;28;25058;-72
2023/08/20 09:07:25;;;;;;;5.05;1.58;;;;;;;;;;4967356;28;25110;-72
2023/08/20 09:09:51;;;;;;;9.00;1.60;;;;;;;;;;4957792;28;25062;-74
2023/08/20 09:12:18;;;;;;;6.22;1.30;;;;;;;;;;4957050;28;25055;-72
2023/08/20 09:14:48;;;;;;;6.78;1.42;;;;;;;;;;4948800;28;25049;-73
2023/08/20 09:17:15;;;;;;;6.43;1.35;;;;;;;;;;4968302;28;25075;-73
2023/08/20 09:19:42;;;;;;;5.72;1.30;;;;;;;;;;4966053;28;25081;-72
2023/08/20 09:22:08;;;;;;;4.65;1.15;;;;;;;;;;4968470;28;25087;-74
2023/08/20 09:24:39;;;;;;;2.42;1.02;;;;;;;;;;4969232;28;25122;-73
2023/08/20 09:27:05;;;;;;;8.63;1.77;;;;;;;;;;4960661;28;25089;-73
2023/08/20 09:29:55;;;;;;;3.97;1.20;;;;;;;;;;4953916;28;25159;-72
2023/08/20 09:32:25;;;;;;;8.48;1.75;;;;;;;;;;4952817;28;25074;-73
2023/08/20 09:34:51;;;;;;;4.95;1.40;;;;;;;;;;4956984;28;25085;-73
2023/08/20 09:37:18;;;;;;;5.00;1.45;;;;;;;;;;4949589;28;25067;-73
2023/08/20 09:39:44;;;;;;;3.47;1.20;;;;;;;;;;4966042;28;25080;-73
2023/08/20 09:42:11;;;;;;;3.05;1.23;;;;;;;;;;4967141;28;25073;-71
2023/08/20 09:44:38;;;;;;;7.60;1.27;;;;;;;;;;4959582;28;25388;-73
2023/08/20 09:47:07;;;;;;;4.72;1.52;;;;;;;;;;4960440;28;25102;-73
2023/08/20 09:49:36;;;;;;;3.58;0.98;;;;;;;;;;4952724;28;25162;-72
2023/08/20 09:52:04;;;;;;;4.53;1.20;;;;;;;;;;4947084;28;25065;-73
2023/08/20 09:54:49;;;;;;;5.70;1.73;;;;;;;;;;4983681;28;25058;-75
2023/08/20 09:57:27;;;;;;;6.97;1.73;;;;;;;;;;4977983;28;25072;-74
2023/08/20 09:59:54;;;;;;;3.40;1.10;;;;;;;;;;4982249;28;25073;-76
2023/08/20 10:02:20;;;;;;;5.43;1.33;;;;;;;;;;4974624;28;25195;-76
2023/08/20 10:04:46;;;;;;;9.05;1.90;;;;;;;;;;4970689;28;25181;-74
2023/08/20 10:07:12;;;;;;;7.95;1.65;;;;;;;;;;4973860;28;25104;-73
2023/08/20 10:09:39;;;;;;;5.82;1.27;;;;;;;;;;4977342;28;25079;-73
2023/08/20 10:12:06;;;;;;;5.22;1.20;;;;;;;;;;4971504;28;25037;-73
2023/08/20 10:14:32;;;;;;;2.45;1.10;;;;;;;;;;4973288;28;25067;-73
2023/08/20 10:16:57;;;;;;;2.72;1.02;;;;;;;;;;4985497;28;25052;-73
2023/08/20 10:19:25;;;;;;;5.47;1.10;;;;;;;;;;4978131;28;25071;-74
2023/08/20 10:21:54;;;;;;;4.00;1.20;;;;;;;;;;4984701;28;25071;-75
2023/08/20 10:24:20;;;;;;;6.90;1.20;;;;;;;;;;4975909;28;25158;-75
2023/08/20 10:26:48;;;;;;;8.32;1.10;;;;;;;;;;4980756;28;25062;-75
2023/08/20 10:29:32;;;;;;;5.28;1.55;;;;;;;;;;4980563;28;25131;-74
2023/08/20 10:31:58;;;;;;;2.72;1.13;;;;;;;;;;4991430;28;25073;-73
2023/08/20 10:34:38;;;;;;;2.42;0.90;;;;;;;;;;4988723;28;25161;-75
2023/08/20 10:37:11;;;;;;;2.60;1.33;;;;;;;;;;4982564;28;25055;-74
2023/08/20 10:39:37;;;;;;;4.47;1.30;;;;;;;;;;4983170;28;25048;-73
2023/08/20 10:42:10;;;;;;;5.32;1.33;;;;;;;;;;4975139;28;25078;-74
2023/08/20 10:44:55;;;;;;;5.50;1.23;;;;;;;;;;4986743;28;25091;-74
2023/08/20 10:47:22;;;;;;;2.10;0.80;;;;;;;;;;4978193;28;25085;-74
2023/08/20 10:49:52;;;;;;;6.65;1.25;;;;;;;;;;4986280;28;25054;-73
2023/08/20 10:52:18;;;;;;;7.85;1.65;;;;;;;;;;4988138;28;25187;-73
2023/08/20 10:54:44;;;;;;;7.20;1.70;;;;;;;;;;4979444;28;25140;-74
2023/08/20 10:57:10;;;;;;;5.53;1.00;;;;;;;;;;4979244;28;25126;-73
2023/08/20 10:59:39;;;;;;;3.33;1.30;;;;;;;;;;4985231;28;25108;-76
2023/08/20 11:02:08;;;;;;;3.17;1.40;;;;;;;;;;4990644;28;25134;-74
2023/08/20 11:04:34;;;;;;;4.68;1.10;;;;;;;;;;4982536;28;25098;-74
2023/08/20 11:07:01;;;;;;;6.43;1.38;;;;;;;;;;4974356;28;25103;-73
2023/08/20 11:09:28;;;;;;;4.95;1.10;;;;;;;;;;4978603;28;25055;-74
2023/08/20 11:11:54;;;;;;;4.18;1.33;;;;;;;;;;4979817;28;25059;-75
2023/08/20 11:14:20;;;;;;;4.82;1.00;;;;;;;;;;4974145;28;25058;-78
2023/08/20 11:16:48;;;;;;;5.95;1.30;;;;;;;;;;4975308;28;25126;-74
2023/08/20 11:19:14;;;;;;;3.25;1.25;;;;;;;;;;4973360;28;25091;-76
2023/08/20 11:21:41;;;;;;;6.32;1.38;;;;;;;;;;4984787;28;25149;-74
2023/08/20 11:24:08;;;;;;;5.10;1.33;;;;;;;;;;4977763;28;25077;-74
2023/08/20 11:26:35;;;;;;;5.68;1.30;;;;;;;;;;4979400;28;25069;-73
2023/08/20 11:29:02;;;;;;;5.85;1.00;;;;;;;;;;4975272;28;25070;-76
2023/08/20 11:31:28;;;;;;;3.28;0.90;;;;;;;;;;4981842;28;25055;-74
2023/08/20 11:33:57;;;;;;;3.90;1.40;;;;;;;;;;4982953;28;25151;-74
2023/08/20 11:36:23;;;;;;;3.95;1.35;;;;;;;;;;4974247;28;25060;-74
2023/08/20 11:38:51;;;;;;;7.32;1.20;;;;;;;;;;4986077;28;25096;-73
2023/08/20 11:41:18;;;;;;;2.63;1.00;;;;;;;;;;4976413;28;25066;-73
2023/08/20 11:43:44;;;;;;;3.17;1.30;;;;;;;;;;4980633;28;25056;-74
2023/08/20 11:46:16;;;;;;;3.60;1.00;;;;;;;;;;4983822;28;25096;-73
2023/08/20 11:48:59;;;;;;;2.60;1.00;;;;;;;;;;4971407;28;24954;-73
2023/08/20 11:51:25;;;;;;;5.53;1.08;;;;;;;;;;4986924;28;25090;-75
2023/08/20 11:53:51;;;;;;;4.05;1.20;;;;;;;;;;4975580;28;25041;-73
2023/08/20 11:56:17;;;;;;;4.53;1.30;;;;;;;;;;4981705;28;25074;-73
2023/08/20 11:58:43;;;;;;;3.17;1.00;;;;;;;;;;4986259;28;25072;-73
2023/08/20 12:01:09;;;;;;;3.05;0.98;;;;;;;;;;4976167;28;25178;-73
2023/08/20 12:03:38;;;;;;;5.60;1.30;;;;;;;;;;4975006;28;25063;-73
2023/08/20 12:06:19;;;;;;;1.70;0.80;;;;;;;;;;4976880;28;25059;-73
2023/08/20 12:08:46;;;;;;;2.70;1.05;;;;;;;;;;4977372;28;25088;-73
2023/08/20 12:11:12;;;;;;;2.22;1.00;;;;;;;;;;4977419;28;25068;-74
2023/08/20 12:13:38;;;;;;;2.60;1.30;;;;;;;;;;4978823;28;25076;-73
2023/08/20 12:16:04;;;;;;;4.75;1.05;;;;;;;;;;4961253;28;25061;-73
2023/08/20 12:18:30;;;;;;;3.45;1.00;;;;;;;;;;4965746;28;25100;-74
2023/08/20 12:20:56;;;;;;;5.78;1.83;;;;;;;;;;4966096;28;25135;-73
2023/08/20 12:23:22;;;;;;;3.65;1.00;;;;;;;;;;4967875;28;25062;-74
2023/08/20 12:25:51;;;;;;;4.97;0.98;;;;;;;;;;4986697;28;25075;-74
2023/08/20 12:28:17;;;;;;;3.00;1.17;;;;;;;;;;4980676;28;25046;-75
2023/08/20 12:30:43;;;;;;;2.05;0.77;;;;;;;;;;4978624;28;25054;-72
2023/08/20 12:33:10;;;;;;;2.42;0.95;;;;;;;;;;4972566;28;25066;-74
2023/08/20 12:35:37;;;;;;;4.85;1.50;;;;;;;;;;4977034;28;25146;-73
2023/08/20 12:38:03;;;;;;;4.32;1.00;;;;;;;;;;4978381;28;25143;-73
2023/08/20 12:40:30;;;;;;;3.33;1.17;;;;;;;;;;4981048;28;25073;-73
2023/08/20 12:42:56;;;;;;;3.00;1.15;;;;;;;;;;4978934;28;25158;-73
2023/08/20 12:45:22;;;;;;;4.68;0.95;;;;;;;;;;4975000;28;25125;-73
2023/08/20 12:47:48;;;;;;;2.92;1.40;;;;;;;;;;4985873;28;25073;-74
2023/08/20 12:50:14;;;;;;;2.50;1.20;;;;;;;;;;4980677;28;25083;-74
2023/08/20 12:52:40;;;;;;;4.28;1.15;;;;;;;;;;4977589;28;25049;-73
2023/08/20 12:55:07;;;;;;;4.65;0.85;;;;;;;;;;4984154;28;25081;-73
2023/08/20 12:57:36;;;;;;;3.38;1.10;;;;;;;;;;4987378;28;25056;-73
2023/08/20 13:00:10;;;;;;;4.30;1.48;;;;;;;;;;4981679;28;25097;-74
2023/08/20 13:02:36;;;;;;;6.75;1.48;;;;;;;;;;4971125;28;25120;-73
2023/08/20 13:05:03;;;;;;;5.10;1.13;;;;;;;;;;4975067;28;25070;-70
2023/08/20 13:07:29;;;;;;;5.32;1.30;;;;;;;;;;4974992;28;25074;-72
2023/08/20 13:09:55;;;;;;;5.78;0.98;;;;;;;;;;4986026;28;25074;-73
2023/08/20 13:12:24;;;;;;;4.22;1.13;;;;;;;;;;4981859;28;25057;-73
2023/08/20 13:14:50;;;;;;;6.95;1.20;;;;;;;;;;4974029;28;25058;-73
2023/08/20 13:17:16;;;;;;;5.70;1.48;;;;;;;;;;4978143;28;25059;-73
2023/08/20 13:19:42;;;;;;;4.05;1.08;;;;;;;;;;4987347;28;25076;-73
2023/08/20 13:22:08;;;;;;;3.15;1.23;;;;;;;;;;4983459;28;25115;-71
2023/08/20 13:24:34;;;;;;;6.22;1.30;;;;;;;;;;4981771;28;25080;-72
2023/08/20 13:27:00;;;;;;;3.10;1.00;;;;;;;;;;4979135;28;25089;-72
2023/08/20 13:29:26;;;;;;;3.05;0.95;;;;;;;;;;4986553;28;25069;-71
2023/08/20 13:31:52;;;;;;;5.18;1.55;;;;;;;;;;4979812;28;25140;-74
2023/08/20 13:34:18;;;;;;;4.13;1.08;;;;;;;;;;4981309;28;25072;-72
2023/08/20 13:36:46;;;;;;;7.38;1.52;;;;;;;;;;4973998;28;25059;-71
2023/08/20 13:39:13;;;;;;;3.40;1.08;;;;;;;;;;4972525;28;25070;-73
2023/08/20 13:41:40;;;;;;;4.57;1.60;;;;;;;;;;4974158;28;25076;-74
2023/08/20 13:44:06;;;;;;;4.03;1.27;;;;;;;;;;4976164;28;25155;-74
2023/08/20 13:46:32;;;;;;;4.18;1.50;;;;;;;;;;4979179;28;24799;-73
2023/08/20 13:48:57;;;;;;;5.00;1.40;;;;;;;;;;4977974;28;25131;-74
2023/08/20 13:51:23;;;;;;;4.20;1.42;;;;;;;;;;4968662;28;25114;-74
2023/08/20 13:53:49;;;;;;;4.70;1.85;;;;;;;;;;4971560;28;25114;-75
2023/08/20 13:56:15;;;;;;;5.38;1.35;;;;;;;;;;4969586;28;25150;-74
2023/08/20 13:58:41;;;;;;;8.27;2.10;;;;;;;;;;4976372;28;25067;-73
2023/08/20 14:01:07;;;;;;;5.47;1.27;;;;;;;;;;4986887;28;25077;-75
2023/08/20 14:03:33;;;;;;;5.75;1.60;;;;;;;;;;4978747;28;25065;-74
2023/08/20 14:05:59;;;;;;;7.50;2.38;;;;;;;;;;4996525;28;25146;-73
2023/08/20 14:08:25;;;;;;;4.53;1.60;;;;;;;;;;4988211;28;25128;-74
2023/08/20 14:10:51;;;;;;;5.75;1.55;;;;;;;;;;4991257;28;25083;-72
2023/08/20 14:13:17;;;;;;;5.70;1.45;;;;;;;;;;4982996;28;25069;-72
2023/08/20 14:15:43;;;;;;;6.80;1.50;;;;;;;;;;4992778;28;25065;-72
2023/08/20 14:18:09;;;;;;;4.45;1.27;;;;;;;;;;4990356;28;25057;-71
2023/08/20 14:20:35;;;;;;;2.67;1.20;;;;;;;;;;4997123;28;25049;-72
2023/08/20 14:23:01;;;;;;;3.78;1.67;;;;;;;;;;4992910;28;25070;-72
2023/08/20 14:25:27;;;;;;;4.70;1.40;;;;;;;;;;4988325;28;25074;-71
2023/08/20 14:27:53;;;;;;;3.75;1.70;;;;;;;;;;4977521;28;25059;-71
2023/08/20 14:30:19;;;;;;;4.20;1.20;;;;;;;;;;4992167;28;25102;-70
2023/08/20 14:32:45;;;;;;;7.53;1.50;;;;;;;;;;4980856;28;25106;-74
2023/08/20 14:35:12;;;;;;;3.30;1.45;;;;;;;;;;4980689;28;25091;-73
2023/08/20 14:37:38;;;;;;;4.57;1.40;;;;;;;;;;4978356;28;25160;-73